Time;durP1;ratioP1;P1;durP2;ratioP2;P2;SDS_P1;SDS_P2;PMS_P1;PMS_P2;Temp;Humidity;BMP_temperature;BMP_pressure;BME280_temperature;BME280_humidity;BME280_pressure;Samples;Min_cycle;Max_cycle;Signal;HPM_P1;HPM_P2
2022/07/11 00:02:23;;;;;;;2.70;1.80;;;14.20;99.90;;;;;;5015291;28;20214;-30
2022/07/11 00:04:49;;;;;;;2.23;1.80;;;14.20;99.90;;;;;;5014501;28;20681;-30
2022/07/11 00:07:16;;;;;;;3.10;2.00;;;14.20;99.90;;;;;;4998747;28;20204;-31
2022/07/11 00:09:42;;;;;;;3.17;1.77;;;14.20;99.90;;;;;;4998038;28;20207;-29
2022/07/11 00:12:09;;;;;;;2.73;1.80;;;14.20;99.90;;;;;;5015122;28;20178;-30
2022/07/11 00:14:35;;;;;;;2.57;1.90;;;14.20;99.90;;;;;;5014701;28;20208;-29
2022/07/11 00:17:01;;;;;;;3.40;1.90;;;14.10;99.90;;;;;;5015043;28;20236;-31
2022/07/11 00:19:27;;;;;;;2.97;2.30;;;14.10;99.90;;;;;;5032847;28;20186;-30
2022/07/11 00:21:53;;;;;;;2.63;1.97;;;14.00;99.90;;;;;;5014732;28;20214;-30
2022/07/11 00:24:20;;;;;;;3.63;2.03;;;14.00;99.90;;;;;;5013770;28;20192;-30
2022/07/11 00:26:47;;;;;;;3.43;1.80;;;13.90;99.90;;;;;;4998193;28;20192;-30
2022/07/11 00:29:13;;;;;;;2.30;2.10;;;13.90;99.90;;;;;;5014152;28;20222;-30
2022/07/11 00:31:39;;;;;;;3.00;1.93;;;13.80;99.90;;;;;;5014579;28;20189;-30
2022/07/11 00:34:05;;;;;;;2.50;1.90;;;13.80;99.90;;;;;;4994568;28;20178;-30
2022/07/11 00:36:31;;;;;;;5.03;1.80;;;13.70;99.90;;;;;;4980358;28;20206;-30
2022/07/11 00:38:58;;;;;;;2.80;2.10;;;13.70;99.90;;;;;;5014064;28;20189;-30
2022/07/11 00:41:24;;;;;;;4.97;2.00;;;13.70;99.90;;;;;;5014689;28;20220;-30
2022/07/11 00:43:58;;;;;;;2.60;1.80;;;13.70;99.90;;;;;;4997539;28;20183;-30
2022/07/11 00:46:25;;;;;;;2.60;2.13;;;13.70;99.90;;;;;;4997869;28;20213;-30
2022/07/11 00:48:52;;;;;;;2.03;1.83;;;13.80;99.90;;;;;;5013511;28;20200;-29
2022/07/11 00:51:22;;;;;;;2.77;1.77;;;13.80;99.90;;;;;;4997436;28;20180;-30
2022/07/11 00:53:51;;;;;;;3.90;1.80;;;13.80;99.90;;;;;;5013788;28;20188;-28
2022/07/11 00:56:21;;;;;;;2.57;1.77;;;13.80;99.90;;;;;;4994517;28;20317;-30
2022/07/11 00:58:51;;;;;;;3.10;1.80;;;13.80;99.90;;;;;;5012216;28;20195;-30
2022/07/11 01:01:18;;;;;;;2.40;1.77;;;13.90;99.90;;;;;;4997510;28;20280;-29
2022/07/11 01:03:44;;;;;;;3.63;2.03;;;13.90;99.90;;;;;;5014254;28;20310;-29
2022/07/11 01:06:10;;;;;;;2.37;1.73;;;13.90;99.90;;;;;;4995605;28;20216;-29
2022/07/11 01:08:38;;;;;;;3.47;1.73;;;13.90;99.90;;;;;;4997506;28;20247;-30
2022/07/11 01:11:09;;;;;;;2.53;1.60;;;13.80;99.90;;;;;;4997516;28;20578;-30
2022/07/11 01:13:34;;;;;;;2.33;1.60;;;13.80;99.90;;;;;;4997187;28;20179;-29
2022/07/11 01:16:18;;;;;;;3.07;1.70;;;13.80;99.90;;;;;;5013837;28;20193;-29
2022/07/11 01:18:46;;;;;;;2.80;1.50;;;13.80;99.90;;;;;;4993692;28;20638;-30
2022/07/11 01:21:31;;;;;;;2.70;1.63;;;13.80;99.90;;;;;;4994031;28;20224;-30
2022/07/11 01:23:59;;;;;;;3.57;1.90;;;13.80;99.90;;;;;;4985334;28;20187;-30
2022/07/11 01:26:26;;;;;;;2.57;1.83;;;13.70;99.90;;;;;;4996796;28;20208;-29
2022/07/11 01:28:52;;;;;;;3.53;2.00;;;13.70;99.90;;;;;;5012089;28;20211;-29
2022/07/11 01:31:19;;;;;;;4.10;1.97;;;13.70;99.90;;;;;;4997219;28;20174;-30
2022/07/11 01:33:45;;;;;;;2.63;2.13;;;13.70;99.90;;;;;;5031086;28;20180;-30
2022/07/11 01:36:12;;;;;;;3.60;2.13;;;13.60;99.90;;;;;;4997151;28;20665;-30
2022/07/11 01:38:38;;;;;;;2.93;2.07;;;13.60;99.90;;;;;;4996768;28;20177;-29
2022/07/11 01:41:04;;;;;;;2.83;2.10;;;13.60;99.90;;;;;;5013342;28;20182;-31
2022/07/11 01:43:30;;;;;;;2.13;2.03;;;13.60;99.90;;;;;;4996538;28;20186;-30
2022/07/11 01:45:56;;;;;;;2.70;1.80;;;13.60;99.90;;;;;;4996671;28;20207;-30
2022/07/11 01:48:22;;;;;;;3.83;2.30;;;13.50;99.90;;;;;;5013241;28;20224;-30
2022/07/11 01:50:49;;;;;;;2.97;2.13;;;13.50;99.90;;;;;;5013410;28;20181;-29
2022/07/11 01:53:15;;;;;;;2.10;1.90;;;13.40;99.90;;;;;;5013046;28;20179;-30
2022/07/11 01:55:41;;;;;;;2.43;2.23;;;13.40;99.90;;;;;;4996400;28;20248;-29
2022/07/11 01:58:08;;;;;;;2.93;2.07;;;13.40;99.90;;;;;;5012693;28;20178;-29
2022/07/11 02:00:34;;;;;;;2.10;2.00;;;13.40;99.90;;;;;;4995985;28;20187;-29
2022/07/11 02:02:59;;;;;;;2.40;2.20;;;13.40;99.90;;;;;;4996716;28;20180;-30
2022/07/11 02:05:25;;;;;;;3.37;2.20;;;13.30;99.90;;;;;;4996791;28;20265;-30
2022/07/11 02:10:35;;;;;;;3.40;2.20;;;13.30;99.90;;;;;;5012637;28;20218;-30
2022/07/11 02:13:02;;;;;;;2.37;2.00;;;13.20;99.90;;;;;;4993337;28;20189;-31
2022/07/11 02:15:29;;;;;;;4.57;2.37;;;13.20;99.90;;;;;;4993412;28;20297;-31
2022/07/11 02:17:56;;;;;;;4.73;2.53;;;13.00;99.90;;;;;;4977646;28;20273;-31
2022/07/11 02:20:23;;;;;;;4.13;2.20;;;13.00;99.90;;;;;;5011085;28;20708;-30
2022/07/11 02:22:49;;;;;;;3.07;2.30;;;13.00;99.90;;;;;;4992936;28;20279;-30
2022/07/11 02:25:16;;;;;;;5.03;2.40;;;13.10;99.90;;;;;;5010652;28;20192;-30
2022/07/11 02:27:42;;;;;;;2.77;2.10;;;13.20;99.90;;;;;;5012784;28;20180;-30
2022/07/11 02:30:08;;;;;;;4.23;2.60;;;13.20;99.90;;;;;;4996752;28;20213;-31
2022/07/11 02:32:35;;;;;;;5.27;2.30;;;13.30;99.90;;;;;;5012859;28;20266;-30
2022/07/11 02:35:01;;;;;;;4.33;2.30;;;13.30;99.90;;;;;;5030250;28;20200;-30
2022/07/11 02:37:27;;;;;;;2.87;2.43;;;13.30;99.90;;;;;;4996556;28;20215;-30
2022/07/11 02:39:52;;;;;;;3.93;2.37;;;13.30;99.90;;;;;;5030012;28;20222;-30
2022/07/11 02:42:18;;;;;;;2.37;2.17;;;13.30;99.90;;;;;;4996427;28;20234;-30
2022/07/11 02:44:45;;;;;;;4.10;2.30;;;13.30;99.90;;;;;;5012412;28;20249;-30
2022/07/11 02:47:11;;;;;;;2.40;2.20;;;13.30;99.90;;;;;;4996324;28;20183;-31
2022/07/11 02:49:37;;;;;;;4.93;2.70;;;13.30;99.90;;;;;;5012397;28;20302;-29
2022/07/11 02:52:04;;;;;;;2.70;2.30;;;13.20;99.90;;;;;;5030417;28;20260;-29
2022/07/11 02:54:30;;;;;;;3.73;2.30;;;13.20;99.90;;;;;;4995793;28;20174;-30
2022/07/11 02:56:56;;;;;;;4.00;2.30;;;13.10;99.90;;;;;;5012430;28;20216;-30
2022/07/11 02:59:22;;;;;;;4.20;2.40;;;13.20;99.90;;;;;;4996054;28;20206;-30
2022/07/11 03:01:49;;;;;;;3.37;2.37;;;13.10;99.90;;;;;;4996051;28;20237;-30
2022/07/11 03:04:15;;;;;;;2.70;2.40;;;13.10;99.90;;;;;;4995667;28;20179;-30
2022/07/11 03:06:42;;;;;;;3.57;2.40;;;13.10;99.90;;;;;;5012344;28;20257;-30
2022/07/11 03:09:08;;;;;;;3.77;2.40;;;13.00;99.90;;;;;;4995763;28;20210;-30
2022/07/11 03:11:34;;;;;;;3.97;2.43;;;13.00;99.90;;;;;;5014024;28;20183;-29
2022/07/11 03:14:00;;;;;;;3.30;2.60;;;13.00;99.90;;;;;;4999751;28;20190;-29
2022/07/11 03:16:30;;;;;;;2.93;2.60;;;13.00;99.90;;;;;;5033726;28;20191;-30
2022/07/11 03:18:57;;;;;;;3.50;2.30;;;13.10;99.90;;;;;;4999730;28;20188;-30
2022/07/11 03:21:24;;;;;;;2.63;2.37;;;13.10;99.90;;;;;;5015547;28;20188;-29
2022/07/11 03:23:50;;;;;;;4.60;2.53;;;13.10;99.90;;;;;;5033432;28;20210;-29
2022/07/11 03:26:16;;;;;;;4.80;2.40;;;13.10;99.90;;;;;;4999637;28;20237;-29
2022/07/11 03:28:42;;;;;;;2.40;2.20;;;13.00;99.90;;;;;;5015839;28;20226;-30
2022/07/11 03:31:08;;;;;;;3.57;2.40;;;13.00;99.90;;;;;;5015913;28;20178;-30
2022/07/11 03:33:34;;;;;;;2.73;2.40;;;13.00;99.90;;;;;;5015717;28;20178;-29
2022/07/11 03:35:59;;;;;;;3.10;2.63;;;12.90;99.90;;;;;;4998834;28;20206;-29
2022/07/11 03:38:25;;;;;;;6.43;2.53;;;12.90;99.90;;;;;;5015323;28;20191;-30
2022/07/11 03:40:51;;;;;;;3.70;2.40;;;12.90;99.90;;;;;;5015591;28;20193;-30
2022/07/11 03:43:17;;;;;;;3.33;2.17;;;12.90;99.90;;;;;;4995962;28;20203;-30
2022/07/11 03:45:43;;;;;;;3.33;2.20;;;12.90;99.90;;;;;;5005401;28;20195;-30
2022/07/11 03:48:10;;;;;;;3.20;2.67;;;13.00;99.90;;;;;;4999203;28;20180;-29
2022/07/11 03:50:36;;;;;;;4.77;2.60;;;13.00;99.90;;;;;;4997707;28;20218;-29
2022/07/11 03:53:02;;;;;;;3.20;2.33;;;12.90;99.90;;;;;;5009868;28;20179;-29
2022/07/11 03:55:29;;;;;;;3.70;2.47;;;12.90;99.90;;;;;;4998894;28;20202;-29
2022/07/11 03:57:55;;;;;;;4.10;2.70;;;12.90;99.90;;;;;;5015190;28;20255;-29
2022/07/11 04:00:21;;;;;;;7.37;2.83;;;12.80;99.90;;;;;;4998355;28;20318;-28
2022/07/11 04:02:48;;;;;;;2.73;2.40;;;12.80;99.90;;;;;;5013932;28;20217;-29
2022/07/11 04:05:13;;;;;;;2.67;2.40;;;12.80;99.90;;;;;;4997704;28;20218;-30
2022/07/11 04:07:40;;;;;;;3.83;2.43;;;12.80;99.90;;;;;;4997678;28;20214;-30
2022/07/11 04:10:06;;;;;;;2.50;2.30;;;12.80;99.90;;;;;;4998471;28;20289;-30
2022/07/11 04:12:32;;;;;;;4.47;2.80;;;12.80;99.90;;;;;;4994951;28;20172;-29
2022/07/11 04:14:58;;;;;;;2.53;2.33;;;12.80;99.90;;;;;;4995008;28;20219;-29
2022/07/11 04:17:24;;;;;;;4.37;2.50;;;12.80;99.90;;;;;;4997366;28;20194;-29
2022/07/11 04:19:50;;;;;;;4.27;2.50;;;12.80;99.90;;;;;;5031496;28;20174;-29
2022/07/11 04:22:17;;;;;;;4.70;2.60;;;12.70;99.90;;;;;;5012869;28;20179;-29
2022/07/11 04:24:43;;;;;;;3.10;2.43;;;12.80;99.90;;;;;;5031969;28;20198;-29
2022/07/11 04:27:09;;;;;;;5.30;2.97;;;12.70;99.90;;;;;;5013466;28;20180;-29
2022/07/11 04:29:34;;;;;;;3.53;2.70;;;12.70;99.90;;;;;;5013759;28;20211;-29
2022/07/11 04:32:02;;;;;;;4.57;2.57;;;12.70;99.90;;;;;;5014133;28;20211;-29
2022/07/11 04:34:27;;;;;;;2.93;2.67;;;12.70;99.90;;;;;;5031935;28;20171;-30
2022/07/11 04:36:53;;;;;;;4.10;2.40;;;12.70;99.90;;;;;;5014447;28;20231;-30
2022/07/11 04:39:19;;;;;;;3.03;2.60;;;12.70;99.90;;;;;;5015567;28;20263;-30
2022/07/11 04:41:45;;;;;;;4.53;2.73;;;12.70;99.90;;;;;;5015757;28;20183;-30
2022/07/11 04:44:10;;;;;;;3.77;2.73;;;12.70;99.90;;;;;;5015295;28;20202;-30
2022/07/11 04:46:37;;;;;;;3.90;2.50;;;12.70;99.90;;;;;;5032963;28;20198;-30
2022/07/11 04:49:03;;;;;;;3.03;2.40;;;12.70;99.90;;;;;;5014890;28;20209;-30
2022/07/11 04:51:29;;;;;;;3.60;2.47;;;12.70;99.90;;;;;;4998033;28;20182;-30
2022/07/11 04:53:55;;;;;;;2.93;2.50;;;12.70;99.90;;;;;;5014199;28;20185;-30
2022/07/11 04:56:21;;;;;;;3.67;2.60;;;12.70;99.90;;;;;;4997279;28;20203;-30
2022/07/11 04:58:47;;;;;;;3.20;2.90;;;12.70;99.90;;;;;;5013417;28;20190;-30
2022/07/11 05:01:13;;;;;;;2.83;2.60;;;12.80;99.90;;;;;;5010360;28;20193;-30
2022/07/11 05:03:39;;;;;;;2.93;2.67;;;12.80;99.90;;;;;;4993528;28;20207;-30
2022/07/11 05:06:06;;;;;;;4.93;2.60;;;12.90;99.90;;;;;;5026999;23;20233;-36
2022/07/11 05:08:36;;;;;;;4.90;2.43;;;12.90;99.90;;;;;;4993164;28;20175;-36
2022/07/11 05:11:03;;;;;;;5.23;2.40;;;12.90;99.90;;;;;;4976736;28;20209;-36
2022/07/11 05:13:29;;;;;;;3.40;2.50;;;13.00;99.90;;;;;;4993970;28;20248;-36
2022/07/11 05:15:55;;;;;;;2.87;2.40;;;13.10;99.90;;;;;;4970356;28;20642;-36
2022/07/11 05:18:21;;;;;;;4.53;2.80;;;13.10;99.90;;;;;;4958258;28;20185;-36
2022/07/11 05:20:48;;;;;;;5.03;2.63;;;13.10;99.90;;;;;;4958709;28;20195;-36
2022/07/11 05:23:15;;;;;;;5.73;2.60;;;13.10;99.90;;;;;;4957964;28;20188;-36
2022/07/11 05:25:41;;;;;;;4.00;2.63;;;13.10;99.90;;;;;;4958240;28;20211;-34
2022/07/11 05:28:09;;;;;;;3.53;2.27;;;13.20;99.90;;;;;;4990624;28;20186;-35
2022/07/11 05:30:34;;;;;;;4.13;2.53;;;13.30;99.90;;;;;;4973422;28;20230;-34
2022/07/11 05:33:00;;;;;;;2.83;2.53;;;13.40;99.90;;;;;;4958080;28;20181;-34
2022/07/11 05:35:26;;;;;;;3.40;2.27;;;13.40;99.90;;;;;;4973243;28;20195;-34
2022/07/11 05:37:52;;;;;;;2.50;2.30;;;13.40;99.90;;;;;;4957448;28;20223;-34
2022/07/11 05:40:18;;;;;;;2.50;2.30;;;13.50;99.90;;;;;;4957930;28;20189;-34
2022/07/11 05:42:44;;;;;;;3.63;2.47;;;13.50;99.90;;;;;;4974227;28;20199;-34
2022/07/11 05:45:10;;;;;;;5.07;2.70;;;13.60;99.90;;;;;;4973282;28;20185;-34
2022/07/11 05:47:36;;;;;;;4.23;2.33;;;13.60;99.90;;;;;;4991670;28;20269;-34
2022/07/11 05:50:03;;;;;;;3.57;2.33;;;13.70;99.90;;;;;;4957400;28;20205;-34
2022/07/11 05:52:29;;;;;;;3.70;2.60;;;13.80;99.90;;;;;;4958112;28;20182;-34
2022/07/11 05:54:55;;;;;;;4.73;2.73;;;13.90;99.90;;;;;;4957962;28;20189;-34
2022/07/11 05:57:20;;;;;;;4.93;2.60;;;14.10;99.90;;;;;;4991548;28;20203;-34
2022/07/11 05:59:46;;;;;;;3.33;2.37;;;14.20;99.90;;;;;;4973792;28;20289;-36
2022/07/11 06:02:12;;;;;;;2.47;2.27;;;14.20;99.90;;;;;;4958019;28;20201;-35
2022/07/11 06:04:38;;;;;;;3.43;2.13;;;14.30;99.90;;;;;;4972944;28;20217;-35
2022/07/11 06:07:05;;;;;;;3.67;2.40;;;14.40;99.90;;;;;;4957801;28;20263;-34
2022/07/11 06:09:31;;;;;;;2.97;2.60;;;14.50;99.90;;;;;;4973721;28;20198;-35
2022/07/11 06:11:57;;;;;;;2.50;2.30;;;14.50;99.90;;;;;;4956546;28;20178;-36
2022/07/11 06:14:24;;;;;;;4.10;2.50;;;14.60;99.90;;;;;;4973782;28;20182;-35
2022/07/11 06:16:50;;;;;;;4.50;2.40;;;14.80;99.90;;;;;;4956940;28;20199;-34
2022/07/11 06:19:16;;;;;;;3.73;2.40;;;14.80;99.90;;;;;;4974128;28;20215;-35
2022/07/11 06:21:42;;;;;;;6.60;2.47;;;15.00;99.90;;;;;;4957758;28;20187;-36
2022/07/11 06:24:08;;;;;;;4.57;2.50;;;15.10;99.90;;;;;;4957536;28;20234;-35
2022/07/11 06:26:34;;;;;;;3.90;2.20;;;15.30;99.90;;;;;;4957685;28;20218;-36
2022/07/11 06:29:00;;;;;;;4.23;2.67;;;15.50;99.90;;;;;;4957874;28;20211;-36
2022/07/11 06:31:26;;;;;;;3.20;2.27;;;15.60;99.90;;;;;;4958238;28;20216;-34
2022/07/11 06:33:55;;;;;;;2.70;2.50;;;15.70;99.90;;;;;;4958417;28;20256;-36
2022/07/11 06:36:24;;;;;;;3.93;2.70;;;16.00;99.90;;;;;;4961149;28;20211;-35
2022/07/11 06:38:50;;;;;;;3.27;2.43;;;16.20;99.90;;;;;;4992792;28;20275;-35
2022/07/11 06:41:16;;;;;;;2.60;2.40;;;16.40;99.90;;;;;;4991256;28;20234;-35
2022/07/11 06:43:42;;;;;;;4.30;2.90;;;16.60;99.90;;;;;;4973347;28;20176;-36
2022/07/11 06:46:08;;;;;;;3.27;2.80;;;16.90;99.90;;;;;;4958804;28;20192;-36
2022/07/11 06:48:34;;;;;;;2.70;2.40;;;17.00;99.90;;;;;;4976157;28;20194;-35
2022/07/11 06:51:00;;;;;;;3.00;2.60;;;17.10;99.90;;;;;;4975154;28;20219;-34
2022/07/11 06:53:25;;;;;;;3.30;2.83;;;17.10;99.90;;;;;;4961031;28;20184;-35
2022/07/11 06:55:51;;;;;;;5.83;2.77;;;17.30;99.90;;;;;;4960557;28;20196;-36
2022/07/11 06:58:33;;;;;;;7.27;3.20;;;17.40;99.90;;;;;;4960499;28;20184;-35
2022/07/11 07:01:05;;;;;;;4.10;3.05;;;17.50;99.90;;;;;;5002795;28;20226;-35
2022/07/11 07:03:33;;;;;;;3.87;3.20;;;17.80;99.90;;;;;;4960304;28;20262;-34
2022/07/11 07:05:59;;;;;;;4.53;3.03;;;17.80;99.90;;;;;;4959803;28;20212;-35
2022/07/11 07:08:27;;;;;;;4.37;3.40;;;17.90;99.90;;;;;;4993071;28;20242;-35
2022/07/11 07:10:53;;;;;;;4.57;2.75;;;18.20;99.90;;;;;;4960561;28;20203;-35
2022/07/11 07:13:23;;;;;;;4.50;3.20;;;18.30;99.90;;;;;;4960388;28;20180;-35
2022/07/11 07:15:50;;;;;;;3.88;2.85;;;18.30;99.90;;;;;;4975067;28;20214;-35
2022/07/11 07:18:16;;;;;;;3.50;3.20;;;18.40;99.90;;;;;;4977009;28;20180;-37
2022/07/11 07:20:42;;;;;;;5.40;3.67;;;18.70;99.90;;;;;;4960611;28;20187;-37
2022/07/11 07:23:08;;;;;;;5.05;3.20;;;18.90;99.90;;;;;;4975606;28;20179;-34
2022/07/11 07:25:34;;;;;;;3.40;3.10;;;19.00;99.90;;;;;;4960292;28;20196;-36
2022/07/11 07:28:00;;;;;;;3.63;3.33;;;19.00;99.90;;;;;;4948141;28;20325;-38
2022/07/11 07:30:26;;;;;;;3.67;3.38;;;18.90;99.90;;;;;;4958629;28;20215;-36
2022/07/11 07:32:53;;;;;;;3.67;2.95;;;19.20;99.90;;;;;;4975367;28;20187;-37
2022/07/11 07:35:20;;;;;;;3.10;2.80;;;19.50;99.90;;;;;;4959400;28;20637;-37
2022/07/11 07:37:46;;;;;;;4.22;3.10;;;19.70;99.90;;;;;;4956546;28;20525;-36
2022/07/11 07:40:12;;;;;;;3.30;2.78;;;19.90;99.90;;;;;;4957052;28;20181;-35
2022/07/11 07:42:41;;;;;;;3.95;2.80;;;19.80;99.90;;;;;;4975612;28;20246;-38
2022/07/11 07:45:08;;;;;;;3.65;2.85;;;20.00;99.90;;;;;;4960438;28;20234;-35
2022/07/11 07:47:36;;;;;;;3.03;2.70;;;20.10;99.90;;;;;;4976500;28;20180;-35
2022/07/11 07:50:05;;;;;;;4.07;2.70;;;20.00;99.90;;;;;;4960247;28;20215;-35
2022/07/11 07:52:32;;;;;;;4.72;2.90;;;20.00;99.90;;;;;;4960086;28;20182;-36
2022/07/11 07:54:59;;;;;;;3.03;2.67;;;19.90;99.90;;;;;;4993595;28;20186;-35
2022/07/11 07:57:27;;;;;;;3.55;2.83;;;20.00;99.90;;;;;;4975297;28;20199;-37
2022/07/11 08:01:34;;;;;;;4.07;2.70;;;20.10;99.90;;;;;;4960346;28;20184;-36
2022/07/11 08:02:40;;;;;;;3.22;2.80;;;20.30;99.90;;;;;;4975164;28;20198;-35
2022/07/11 08:05:08;;;;;;;3.17;2.67;;;20.20;99.90;;;;;;4959032;28;20184;-35
2022/07/11 08:07:35;;;;;;;3.30;2.25;;;20.20;99.90;;;;;;4976045;28;20254;-35
2022/07/11 08:10:06;;;;;;;3.92;2.33;;;20.00;99.90;;;;;;4989544;28;20196;-36
2022/07/11 08:12:32;;;;;;;2.63;2.40;;;20.40;99.90;;;;;;4975592;28;20199;-36
2022/07/11 08:14:59;;;;;;;4.28;2.30;;;20.60;99.90;;;;;;4975698;28;20227;-35
2022/07/11 08:17:25;;;;;;;4.15;2.50;;;20.90;99.90;;;;;;4974359;28;20203;-37
2022/07/11 08:19:51;;;;;;;2.50;2.30;;;21.00;99.90;;;;;;4995575;28;20198;-35
2022/07/11 08:22:17;;;;;;;4.70;2.38;;;21.10;99.90;;;;;;4978896;28;20195;-35
2022/07/11 08:24:43;;;;;;;3.67;2.17;;;21.00;99.90;;;;;;4995075;28;20180;-36
2022/07/11 08:27:09;;;;;;;2.80;2.10;;;20.90;99.90;;;;;;4978641;28;20290;-35
2022/07/11 08:29:35;;;;;;;2.55;1.98;;;21.20;99.90;;;;;;4994670;28;20215;-35
2022/07/11 08:32:01;;;;;;;2.13;1.80;;;21.50;99.90;;;;;;4978751;28;20206;-35
2022/07/11 08:34:27;;;;;;;1.98;1.50;;;21.80;99.90;;;;;;4995154;28;20187;-35
2022/07/11 08:36:52;;;;;;;2.08;1.88;;;22.20;99.90;;;;;;4986876;28;20294;-36
2022/07/11 08:39:18;;;;;;;1.90;1.60;;;22.20;99.90;;;;;;4975579;28;20184;-35
2022/07/11 08:41:44;;;;;;;1.80;1.50;;;22.30;99.90;;;;;;4975275;28;20180;-35
2022/07/11 08:44:15;;;;;;;2.40;1.30;;;22.60;99.90;;;;;;4974896;28;20180;-36
2022/07/11 08:46:41;;;;;;;1.73;1.40;;;22.80;99.90;;;;;;4974972;28;20223;-35
2022/07/11 08:49:07;;;;;;;1.88;1.40;;;22.90;99.90;;;;;;4975248;28;20315;-37
2022/07/11 08:51:37;;;;;;;2.53;1.50;;;23.10;99.90;;;;;;4975353;28;20555;-37
2022/07/11 08:54:04;;;;;;;2.25;1.55;;;23.00;99.90;;;;;;4975046;28;20191;-38
2022/07/11 08:56:31;;;;;;;1.27;1.17;;;22.80;99.90;;;;;;4975051;28;20295;-36
2022/07/11 08:59:00;;;;;;;1.15;0.93;;;22.60;99.90;;;;;;4974796;28;20239;-35
2022/07/11 09:01:34;;;;;;;0.88;0.88;;;22.80;99.90;;;;;;4975111;28;20179;-35
2022/07/11 09:04:00;;;;;;;1.25;1.02;;;22.90;99.90;;;;;;4974739;28;20243;-34
2022/07/11 09:06:26;;;;;;;1.13;1.00;;;22.80;99.90;;;;;;4974876;28;20665;-35
2022/07/11 09:08:57;;;;;;;1.20;1.10;;;22.80;99.90;;;;;;4974500;28;20212;-35
2022/07/11 09:11:23;;;;;;;2.22;1.10;;;22.60;99.90;;;;;;4974533;28;20184;-36
2022/07/11 09:13:49;;;;;;;1.85;1.05;;;22.60;99.90;;;;;;4992096;28;20168;-37
2022/07/11 09:16:19;;;;;;;1.10;1.00;;;22.20;99.90;;;;;;4974868;28;20208;-38
2022/07/11 09:18:44;;;;;;;0.90;0.90;;;22.00;99.90;;;;;;4958808;28;20639;-35
2022/07/11 09:26:46;;;;;;;1.67;1.20;;;22.30;99.90;;;;;;4990769;28;20204;-35
2022/07/11 09:29:20;;;;;;;1.00;1.00;;;22.10;99.90;;;;;;4974397;28;20207;-36
2022/07/11 09:31:46;;;;;;;1.10;1.00;;;21.90;99.90;;;;;;4974297;28;20180;-35
2022/07/11 09:34:17;;;;;;;1.00;1.00;;;21.90;99.90;;;;;;4974143;28;20176;-35
2022/07/11 09:36:43;;;;;;;1.00;1.00;;;22.00;99.90;;;;;;4974368;28;20208;-35
2022/07/11 09:39:17;;;;;;;1.02;1.00;;;22.10;99.90;;;;;;4992003;28;20187;-35
2022/07/11 09:41:44;;;;;;;1.45;1.10;;;22.50;99.90;;;;;;4974281;28;20188;-35
2022/07/11 09:44:11;;;;;;;1.98;1.00;;;22.90;99.90;;;;;;4990341;28;20191;-36
2022/07/11 09:46:38;;;;;;;1.10;1.00;;;22.80;99.90;;;;;;4974005;28;20217;-35
2022/07/11 09:49:04;;;;;;;1.13;1.10;;;22.80;99.90;;;;;;4973934;28;20208;-37
2022/07/11 09:51:35;;;;;;;1.05;1.00;;;22.80;99.90;;;;;;4974130;28;20168;-36
2022/07/11 09:54:04;;;;;;;1.63;1.17;;;22.70;99.90;;;;;;4974048;28;20176;-38
2022/07/11 09:56:45;;;;;;;1.10;1.00;;;22.70;99.90;;;;;;4973421;28;20188;-36
2022/07/11 09:59:12;;;;;;;1.10;1.00;;;22.70;99.90;;;;;;4956827;28;20211;-35
2022/07/11 10:01:39;;;;;;;1.38;1.00;;;22.60;99.90;;;;;;4954213;28;20195;-37
2022/07/11 10:04:08;;;;;;;1.05;0.95;;;22.70;99.90;;;;;;4978701;28;20180;-36
2022/07/11 10:06:35;;;;;;;1.75;0.80;;;22.80;99.90;;;;;;4970381;28;20302;-37
2022/07/11 10:09:04;;;;;;;0.80;0.80;;;22.70;99.90;;;;;;4956905;28;20179;-36
2022/07/11 10:11:32;;;;;;;0.80;0.80;;;22.70;99.90;;;;;;4957898;28;20271;-38
2022/07/11 10:14:03;;;;;;;1.25;0.80;;;22.60;99.90;;;;;;4972767;28;20168;-36
2022/07/11 10:16:53;;;;;;;1.30;0.80;;;22.70;99.90;;;;;;4962364;28;20286;-36
2022/07/11 10:19:47;;;;;;;1.13;0.98;;;22.60;99.90;;;;;;4993281;28;20238;-36
2022/07/11 10:22:35;;;;;;;0.82;0.80;;;23.00;99.90;;;;;;4941496;28;20184;-36
2022/07/11 10:25:17;;;;;;;0.90;0.90;;;23.20;99.90;;;;;;4950623;28;20245;-38
2022/07/11 10:28:23;;;;;;;0.80;0.80;;;23.20;99.90;;;;;;4977230;28;20244;-36
2022/07/11 10:30:51;;;;;;;0.80;0.80;;;23.40;99.90;;;;;;4976031;28;20211;-36
2022/07/11 10:33:18;;;;;;;0.88;0.88;;;23.50;99.90;;;;;;4977357;28;20184;-37
2022/07/11 10:35:56;;;;;;;0.88;0.88;;;23.50;99.90;;;;;;4961122;28;20203;-35
2022/07/11 10:38:23;;;;;;;0.93;0.80;;;23.30;99.90;;;;;;4961130;28;20203;-38
2022/07/11 10:40:53;;;;;;;1.38;0.70;;;23.40;99.90;;;;;;4975036;28;20277;-37
2022/07/11 10:43:22;;;;;;;0.70;0.70;;;23.50;99.90;;;;;;4959843;28;20225;-35
2022/07/11 10:46:07;;;;;;;1.45;0.75;;;23.50;99.90;;;;;;4943523;28;20299;-36
2022/07/11 10:48:36;;;;;;;0.98;0.88;;;23.70;99.90;;;;;;4961287;28;20175;-36
2022/07/11 10:51:16;;;;;;;1.60;1.10;;;23.80;99.90;;;;;;4977075;28;20207;-38
2022/07/11 10:53:50;;;;;;;1.25;0.70;;;23.90;99.90;;;;;;4960946;28;20580;-35
2022/07/11 10:56:40;;;;;;;1.35;1.00;;;24.00;99.90;;;;;;4958092;28;20204;-36
2022/07/11 10:59:17;;;;;;;0.80;0.80;;;24.00;99.90;;;;;;4972927;28;20191;-38
2022/07/11 11:02:10;;;;;;;0.95;0.85;;;23.90;99.90;;;;;;4961191;28;20180;-36
2022/07/11 11:04:59;;;;;;;0.80;0.80;;;23.80;99.90;;;;;;4994352;28;20195;-36
2022/07/11 11:07:30;;;;;;;1.55;0.90;;;23.60;99.90;;;;;;4961107;28;20211;-35
2022/07/11 11:09:57;;;;;;;0.70;0.70;;;23.60;99.90;;;;;;4954636;28;20279;-35
2022/07/11 11:13:04;;;;;;;1.23;0.80;;;23.80;99.90;;;;;;4962361;28;20168;-36
2022/07/11 11:15:44;;;;;;;0.98;0.80;;;23.90;99.90;;;;;;4952122;28;20211;-35
2022/07/11 11:18:41;;;;;;;1.55;1.45;;;24.40;99.90;;;;;;4968609;28;20215;-37
2022/07/11 11:21:07;;;;;;;1.00;0.68;;;24.60;99.90;;;;;;4952543;28;20200;-36
2022/07/11 11:23:37;;;;;;;0.80;0.80;;;24.80;99.90;;;;;;4952553;28;20187;-37
2022/07/11 11:26:14;;;;;;;2.13;1.10;;;24.70;99.90;;;;;;4967365;28;20196;-36
2022/07/11 11:28:56;;;;;;;1.20;0.95;;;24.90;99.90;;;;;;4967137;28;20188;-36
2022/07/11 11:31:22;;;;;;;1.20;1.10;;;24.90;99.90;;;;;;4974863;28;20180;-39
2022/07/11 11:33:48;;;;;;;0.95;0.95;;;25.10;99.90;;;;;;4950838;28;20180;-41
2022/07/11 11:36:22;;;;;;;2.88;0.98;;;25.20;99.90;;;;;;4970788;28;20192;-36
2022/07/11 11:38:48;;;;;;;1.33;1.10;;;25.70;99.90;;;;;;4974083;28;20267;-39
2022/07/11 11:41:23;;;;;;;0.80;0.80;;;25.70;99.90;;;;;;4976187;28;20303;-37
2022/07/11 11:43:49;;;;;;;0.98;0.98;;;25.80;99.90;;;;;;4976343;28;20187;-37
2022/07/11 11:46:15;;;;;;;1.05;1.00;;;25.80;99.90;;;;;;4960128;28;20231;-37
2022/07/11 11:48:45;;;;;;;1.92;1.00;;;26.00;99.90;;;;;;4959080;28;20234;-36
2022/07/11 11:51:16;;;;;;;1.88;0.80;;;26.00;99.90;;;;;;4993487;28;20693;-38
2022/07/11 11:53:45;;;;;;;1.60;1.15;;;26.00;99.90;;;;;;4993729;28;20168;-40
2022/07/11 11:56:16;;;;;;;1.38;0.98;;;25.80;99.90;;;;;;4959396;28;20232;-41
2022/07/11 11:58:44;;;;;;;1.52;1.10;;;25.60;99.90;;;;;;4952406;28;20187;-36
2022/07/11 12:01:11;;;;;;;1.10;1.00;;;25.30;99.90;;;;;;4988974;28;20195;-39
2022/07/11 12:03:55;;;;;;;1.02;1.00;;;25.40;99.90;;;;;;4975351;28;20247;-37
2022/07/11 12:06:26;;;;;;;1.17;1.08;;;25.40;99.90;;;;;;4974330;28;20215;-39
2022/07/11 12:09:54;;;;;;;1.00;0.95;;;25.40;99.90;;;;;;4974952;28;20183;-37
2022/07/11 12:15:31;;;;;;;1.38;1.27;;;25.90;99.90;;;;;;4975315;28;20203;-36
2022/07/11 12:17:59;;;;;;;2.45;1.13;;;25.70;99.90;;;;;;4970501;28;20171;-38
2022/07/11 12:20:44;;;;;;;1.35;0.95;;;25.70;99.90;;;;;;4974570;28;20188;-37
2022/07/11 12:23:18;;;;;;;1.80;0.90;;;25.50;99.90;;;;;;4972210;28;20203;-37
2022/07/11 12:25:47;;;;;;;1.05;0.93;;;25.40;99.90;;;;;;4974609;28;20208;-36
2022/07/11 12:28:16;;;;;;;1.42;1.02;;;25.40;99.90;;;;;;4974616;28;20176;-39
2022/07/11 12:30:42;;;;;;;2.25;1.30;;;25.60;99.90;;;;;;4958674;28;20242;-38
2022/07/11 12:33:11;;;;;;;1.10;1.00;;;26.00;99.90;;;;;;4998922;28;20523;-38
2022/07/11 12:36:01;;;;;;;1.00;1.00;;;26.20;99.90;;;;;;4974041;28;20192;-36
2022/07/11 12:38:52;;;;;;;1.38;1.27;;;26.10;99.90;;;;;;4973844;28;20196;-36
2022/07/11 12:41:20;;;;;;;1.02;0.93;;;25.90;99.90;;;;;;4973336;28;20274;-36
2022/07/11 12:46:33;;;;;;;1.05;1.00;;;25.70;99.90;;;;;;4989841;28;20198;-37
2022/07/11 12:49:03;;;;;;;0.88;0.88;;;25.50;99.90;;;;;;4974230;28;20245;-37
2022/07/11 12:51:40;;;;;;;0.88;0.88;;;25.80;99.90;;;;;;4998670;28;20180;-36
2022/07/11 12:54:16;;;;;;;1.05;1.00;;;26.40;99.90;;;;;;4973884;28;20172;-40
2022/07/11 12:56:57;;;;;;;1.38;1.27;;;27.00;99.70;;;;;;4973935;28;20295;-38
2022/07/11 12:59:24;;;;;;;1.77;1.10;;;27.50;98.90;;;;;;4974341;28;20222;-40
2022/07/11 13:01:59;;;;;;;1.05;1.05;;;27.90;98.00;;;;;;4974808;28;20186;-36
2022/07/11 13:05:00;;;;;;;1.10;0.98;;;27.80;98.30;;;;;;4989152;28;20192;-37
2022/07/11 13:10:23;;;;;;;0.95;0.95;;;28.20;97.10;;;;;;4972456;28;20200;-37
2022/07/11 13:13:02;;;;;;;1.83;1.20;;;27.60;96.80;;;;;;4970773;28;20278;-39
2022/07/11 13:15:29;;;;;;;2.35;1.00;;;27.80;97.10;;;;;;4988856;28;20203;-37